Goldboro, Canada
Current Conditions -  °F | °C
As of 4:00 PM on Tuesday 21 Oct 2014 (Local Time) from CYPD Reporting Station
Clear Clear  
Wind Chill: 54°   Ceiling: Unl
Heat Index: 54°   Visibility: 9mi
Dew Point: 37°   Wind: 3mph
Humidity: 54%   Direction: 310°NW
Pressure: 30.16"   Gusts: NA
Location:  45.18°N, 61.65°W
Report Text: CYPD 211900Z AUTO 31003KT 280V350 9SM CLR 12/03 A3016 RMK SLP216
Loading
Personal Weather Stations






























Interactive Weather Map New forecast layout! Learn more

10-Day Weather Forecast

Advertisements
Track Severe Weather on mobile